sensor_id;sensor_type;location;lat;lon;timestamp;P1;durP1;ratioP1;P2;durP2;ratioP2
20828;SDS011;10575;50.124;8.582;2023-11-21T00:01:53;15.57;;;3.92;;
20828;SDS011;10575;50.124;8.582;2023-11-21T00:04:19;9.18;;;3.63;;
20828;SDS011;10575;50.124;8.582;2023-11-21T00:06:45;10.30;;;4.47;;
20828;SDS011;10575;50.124;8.582;2023-11-21T00:09:12;9.40;;;4.55;;
20828;SDS011;10575;50.124;8.582;2023-11-21T00:11:40;12.60;;;5.07;;
20828;SDS011;10575;50.124;8.582;2023-11-21T00:14:06;13.55;;;6.13;;
20828;SDS011;10575;50.124;8.582;2023-11-21T00:16:31;17.98;;;5.68;;
20828;SDS011;10575;50.124;8.582;2023-11-21T00:18:56;14.48;;;6.07;;
20828;SDS011;10575;50.124;8.582;2023-11-21T00:21:22;12.70;;;5.28;;
20828;SDS011;10575;50.124;8.582;2023-11-21T00:23:47;11.05;;;4.55;;
20828;SDS011;10575;50.124;8.582;2023-11-21T00:26:13;11.13;;;4.50;;
20828;SDS011;10575;50.124;8.582;2023-11-21T00:28:39;10.85;;;4.60;;
20828;SDS011;10575;50.124;8.582;2023-11-21T00:31:05;7.03;;;3.30;;
20828;SDS011;10575;50.124;8.582;2023-11-21T00:33:30;8.98;;;3.65;;
20828;SDS011;10575;50.124;8.582;2023-11-21T00:35:56;7.70;;;3.58;;
20828;SDS011;10575;50.124;8.582;2023-11-21T00:38:22;5.38;;;2.85;;
20828;SDS011;10575;50.124;8.582;2023-11-21T00:40:50;7.10;;;3.05;;
20828;SDS011;10575;50.124;8.582;2023-11-21T00:43:16;7.95;;;3.55;;
20828;SDS011;10575;50.124;8.582;2023-11-21T00:45:41;10.30;;;2.75;;
20828;SDS011;10575;50.124;8.582;2023-11-21T00:48:07;5.35;;;2.72;;
20828;SDS011;10575;50.124;8.582;2023-11-21T00:50:33;7.55;;;3.63;;
20828;SDS011;10575;50.124;8.582;2023-11-21T00:52:58;6.18;;;3.42;;
20828;SDS011;10575;50.124;8.582;2023-11-21T00:55:26;7.65;;;3.08;;
20828;SDS011;10575;50.124;8.582;2023-11-21T00:57:53;7.00;;;3.13;;
20828;SDS011;10575;50.124;8.582;2023-11-21T01:00:18;5.97;;;2.95;;
20828;SDS011;10575;50.124;8.582;2023-11-21T01:02:44;6.50;;;2.97;;
20828;SDS011;10575;50.124;8.582;2023-11-21T01:05:12;8.98;;;3.58;;
20828;SDS011;10575;50.124;8.582;2023-11-21T01:07:38;7.43;;;3.75;;
20828;SDS011;10575;50.124;8.582;2023-11-21T01:10:03;8.45;;;3.47;;
20828;SDS011;10575;50.124;8.582;2023-11-21T01:12:36;6.45;;;3.22;;
20828;SDS011;10575;50.124;8.582;2023-11-21T01:15:03;5.72;;;2.78;;
20828;SDS011;10575;50.124;8.582;2023-11-21T01:17:32;6.72;;;3.22;;
20828;SDS011;10575;50.124;8.582;2023-11-21T01:19:59;8.65;;;3.13;;
20828;SDS011;10575;50.124;8.582;2023-11-21T01:22:27;6.80;;;3.50;;
20828;SDS011;10575;50.124;8.582;2023-11-21T01:24:53;7.13;;;3.40;;
20828;SDS011;10575;50.124;8.582;2023-11-21T01:27:18;9.23;;;4.07;;
20828;SDS011;10575;50.124;8.582;2023-11-21T01:29:44;7.35;;;3.70;;
20828;SDS011;10575;50.124;8.582;2023-11-21T01:32:12;6.38;;;3.30;;
20828;SDS011;10575;50.124;8.582;2023-11-21T01:34:37;6.28;;;3.38;;
20828;SDS011;10575;50.124;8.582;2023-11-21T01:37:03;5.68;;;3.55;;
20828;SDS011;10575;50.124;8.582;2023-11-21T01:39:30;7.60;;;3.97;;
20828;SDS011;10575;50.124;8.582;2023-11-21T01:41:56;8.45;;;3.67;;
20828;SDS011;10575;50.124;8.582;2023-11-21T01:44:23;10.45;;;3.83;;
20828;SDS011;10575;50.124;8.582;2023-11-21T01:46:49;9.77;;;4.60;;
20828;SDS011;10575;50.124;8.582;2023-11-21T01:49:16;6.43;;;4.20;;
20828;SDS011;10575;50.124;8.582;2023-11-21T01:51:43;5.45;;;3.72;;
20828;SDS011;10575;50.124;8.582;2023-11-21T01:54:11;9.50;;;3.40;;
20828;SDS011;10575;50.124;8.582;2023-11-21T01:56:37;5.28;;;3.42;;
20828;SDS011;10575;50.124;8.582;2023-11-21T01:59:02;5.43;;;3.42;;
20828;SDS011;10575;50.124;8.582;2023-11-21T02:01:28;4.47;;;3.08;;
20828;SDS011;10575;50.124;8.582;2023-11-21T02:03:53;5.53;;;3.25;;
20828;SDS011;10575;50.124;8.582;2023-11-21T02:06:20;4.07;;;2.80;;
20828;SDS011;10575;50.124;8.582;2023-11-21T02:08:47;5.05;;;3.30;;
20828;SDS011;10575;50.124;8.582;2023-11-21T02:11:12;5.43;;;3.28;;
20828;SDS011;10575;50.124;8.582;2023-11-21T02:13:38;7.30;;;3.78;;
20828;SDS011;10575;50.124;8.582;2023-11-21T02:16:08;5.40;;;3.80;;
20828;SDS011;10575;50.124;8.582;2023-11-21T02:18:37;7.18;;;4.10;;
20828;SDS011;10575;50.124;8.582;2023-11-21T02:21:04;6.30;;;4.00;;
20828;SDS011;10575;50.124;8.582;2023-11-21T02:23:30;5.30;;;3.80;;
20828;SDS011;10575;50.124;8.582;2023-11-21T02:25:55;8.30;;;4.18;;
20828;SDS011;10575;50.124;8.582;2023-11-21T02:28:21;5.97;;;3.45;;
20828;SDS011;10575;50.124;8.582;2023-11-21T02:30:50;6.53;;;3.80;;
20828;SDS011;10575;50.124;8.582;2023-11-21T02:33:20;5.63;;;3.88;;
20828;SDS011;10575;50.124;8.582;2023-11-21T02:35:46;5.65;;;3.72;;
20828;SDS011;10575;50.124;8.582;2023-11-21T02:38:12;5.90;;;4.00;;
20828;SDS011;10575;50.124;8.582;2023-11-21T02:40:38;6.47;;;4.40;;
20828;SDS011;10575;50.124;8.582;2023-11-21T02:43:04;6.25;;;4.15;;
20828;SDS011;10575;50.124;8.582;2023-11-21T02:45:30;6.43;;;4.30;;
20828;SDS011;10575;50.124;8.582;2023-11-21T02:47:56;6.50;;;4.00;;
20828;SDS011;10575;50.124;8.582;2023-11-21T02:50:22;7.43;;;4.38;;
20828;SDS011;10575;50.124;8.582;2023-11-21T02:52:48;7.18;;;4.72;;
20828;SDS011;10575;50.124;8.582;2023-11-21T02:55:13;5.00;;;4.10;;
20828;SDS011;10575;50.124;8.582;2023-11-21T02:57:39;5.68;;;3.78;;
20828;SDS011;10575;50.124;8.582;2023-11-21T03:00:05;6.10;;;3.90;;
20828;SDS011;10575;50.124;8.582;2023-11-21T03:02:32;7.82;;;4.25;;
20828;SDS011;10575;50.124;8.582;2023-11-21T03:05:01;4.82;;;3.60;;
20828;SDS011;10575;50.124;8.582;2023-11-21T03:07:27;9.20;;;4.22;;
20828;SDS011;10575;50.124;8.582;2023-11-21T03:09:52;6.95;;;4.20;;
20828;SDS011;10575;50.124;8.582;2023-11-21T03:12:18;7.43;;;4.40;;
20828;SDS011;10575;50.124;8.582;2023-11-21T03:14:44;6.53;;;4.43;;
20828;SDS011;10575;50.124;8.582;2023-11-21T03:17:10;6.35;;;4.63;;
20828;SDS011;10575;50.124;8.582;2023-11-21T03:19:36;7.85;;;4.15;;
20828;SDS011;10575;50.124;8.582;2023-11-21T03:22:02;6.57;;;4.25;;
20828;SDS011;10575;50.124;8.582;2023-11-21T03:24:29;5.70;;;4.47;;
20828;SDS011;10575;50.124;8.582;2023-11-21T03:26:54;5.32;;;3.88;;
20828;SDS011;10575;50.124;8.582;2023-11-21T03:29:20;6.85;;;4.75;;
20828;SDS011;10575;50.124;8.582;2023-11-21T03:31:45;6.95;;;4.50;;
20828;SDS011;10575;50.124;8.582;2023-11-21T03:34:15;9.68;;;5.13;;
20828;SDS011;10575;50.124;8.582;2023-11-21T03:36:41;7.97;;;5.18;;
20828;SDS011;10575;50.124;8.582;2023-11-21T03:39:07;7.70;;;5.65;;
20828;SDS011;10575;50.124;8.582;2023-11-21T03:41:35;8.52;;;5.35;;
20828;SDS011;10575;50.124;8.582;2023-11-21T03:44:00;13.55;;;5.80;;
20828;SDS011;10575;50.124;8.582;2023-11-21T03:46:26;8.90;;;5.40;;
20828;SDS011;10575;50.124;8.582;2023-11-21T03:48:51;9.15;;;5.90;;
20828;SDS011;10575;50.124;8.582;2023-11-21T03:51:17;12.80;;;7.18;;
20828;SDS011;10575;50.124;8.582;2023-11-21T03:53:42;14.00;;;7.80;;
20828;SDS011;10575;50.124;8.582;2023-11-21T03:56:08;20.15;;;8.60;;
20828;SDS011;10575;50.124;8.582;2023-11-21T03:58:34;18.48;;;9.25;;
20828;SDS011;10575;50.124;8.582;2023-11-21T04:00:59;14.68;;;8.55;;
20828;SDS011;10575;50.124;8.582;2023-11-21T04:03:25;19.05;;;9.45;;
20828;SDS011;10575;50.124;8.582;2023-11-21T04:05:50;19.33;;;9.45;;
20828;SDS011;10575;50.124;8.582;2023-11-21T04:08:16;21.50;;;10.27;;
20828;SDS011;10575;50.124;8.582;2023-11-21T04:10:42;19.50;;;10.23;;
20828;SDS011;10575;50.124;8.582;2023-11-21T04:13:08;19.63;;;9.13;;
20828;SDS011;10575;50.124;8.582;2023-11-21T04:15:33;18.25;;;9.00;;
20828;SDS011;10575;50.124;8.582;2023-11-21T04:17:59;16.80;;;8.70;;
20828;SDS011;10575;50.124;8.582;2023-11-21T04:20:24;14.32;;;8.40;;
20828;SDS011;10575;50.124;8.582;2023-11-21T04:22:50;14.02;;;8.35;;
20828;SDS011;10575;50.124;8.582;2023-11-21T04:25:16;17.55;;;7.88;;
20828;SDS011;10575;50.124;8.582;2023-11-21T04:27:42;15.10;;;7.93;;
20828;SDS011;10575;50.124;8.582;2023-11-21T04:30:12;12.13;;;6.80;;
20828;SDS011;10575;50.124;8.582;2023-11-21T04:32:39;10.45;;;6.53;;
20828;SDS011;10575;50.124;8.582;2023-11-21T04:35:04;12.38;;;6.78;;
20828;SDS011;10575;50.124;8.582;2023-11-21T04:37:31;13.55;;;7.05;;
20828;SDS011;10575;50.124;8.582;2023-11-21T04:39:56;12.38;;;6.47;;
20828;SDS011;10575;50.124;8.582;2023-11-21T04:42:22;12.27;;;6.45;;
20828;SDS011;10575;50.124;8.582;2023-11-21T04:44:48;14.43;;;7.00;;
20828;SDS011;10575;50.124;8.582;2023-11-21T04:47:14;15.52;;;7.55;;
20828;SDS011;10575;50.124;8.582;2023-11-21T04:49:41;12.60;;;6.85;;
20828;SDS011;10575;50.124;8.582;2023-11-21T04:52:07;10.95;;;6.55;;
20828;SDS011;10575;50.124;8.582;2023-11-21T04:54:34;16.35;;;8.35;;
20828;SDS011;10575;50.124;8.582;2023-11-21T04:57:00;19.25;;;9.70;;
20828;SDS011;10575;50.124;8.582;2023-11-21T04:59:26;22.25;;;9.80;;
20828;SDS011;10575;50.124;8.582;2023-11-21T05:01:52;22.27;;;10.35;;
20828;SDS011;10575;50.124;8.582;2023-11-21T05:04:18;21.23;;;10.82;;
20828;SDS011;10575;50.124;8.582;2023-11-21T05:06:44;25.83;;;10.88;;
20828;SDS011;10575;50.124;8.582;2023-11-21T05:09:11;23.65;;;10.63;;
20828;SDS011;10575;50.124;8.582;2023-11-21T05:11:37;19.20;;;9.15;;
20828;SDS011;10575;50.124;8.582;2023-11-21T05:14:03;21.90;;;10.38;;
20828;SDS011;10575;50.124;8.582;2023-11-21T05:16:30;22.17;;;10.52;;
20828;SDS011;10575;50.124;8.582;2023-11-21T05:18:56;18.17;;;10.13;;
20828;SDS011;10575;50.124;8.582;2023-11-21T05:21:25;23.38;;;10.88;;
20828;SDS011;10575;50.124;8.582;2023-11-21T05:23:51;20.33;;;9.07;;
20828;SDS011;10575;50.124;8.582;2023-11-21T05:26:16;20.58;;;9.43;;
20828;SDS011;10575;50.124;8.582;2023-11-21T05:28:42;16.88;;;9.60;;
20828;SDS011;10575;50.124;8.582;2023-11-21T05:31:07;18.38;;;9.82;;
20828;SDS011;10575;50.124;8.582;2023-11-21T05:33:33;21.77;;;9.98;;
20828;SDS011;10575;50.124;8.582;2023-11-21T05:35:58;19.60;;;9.55;;
20828;SDS011;10575;50.124;8.582;2023-11-21T05:38:26;22.30;;;9.80;;
20828;SDS011;10575;50.124;8.582;2023-11-21T05:40:52;22.42;;;10.52;;
20828;SDS011;10575;50.124;8.582;2023-11-21T05:43:17;19.85;;;9.95;;
20828;SDS011;10575;50.124;8.582;2023-11-21T05:45:43;19.33;;;9.43;;
20828;SDS011;10575;50.124;8.582;2023-11-21T05:48:08;21.40;;;9.70;;
20828;SDS011;10575;50.124;8.582;2023-11-21T05:50:34;19.73;;;10.00;;
20828;SDS011;10575;50.124;8.582;2023-11-21T05:52:59;18.02;;;9.80;;
20828;SDS011;10575;50.124;8.582;2023-11-21T05:55:25;17.20;;;9.07;;
20828;SDS011;10575;50.124;8.582;2023-11-21T05:57:51;21.08;;;8.65;;
20828;SDS011;10575;50.124;8.582;2023-11-21T06:00:17;18.75;;;8.80;;
20828;SDS011;10575;50.124;8.582;2023-11-21T06:02:46;18.15;;;8.68;;
20828;SDS011;10575;50.124;8.582;2023-11-21T06:05:17;15.25;;;7.55;;
20828;SDS011;10575;50.124;8.582;2023-11-21T06:07:44;14.82;;;7.47;;
20828;SDS011;10575;50.124;8.582;2023-11-21T06:10:10;17.92;;;8.30;;
20828;SDS011;10575;50.124;8.582;2023-11-21T06:12:40;14.27;;;6.80;;
20828;SDS011;10575;50.124;8.582;2023-11-21T06:15:08;13.32;;;6.95;;
20828;SDS011;10575;50.124;8.582;2023-11-21T06:17:35;9.95;;;5.65;;
20828;SDS011;10575;50.124;8.582;2023-11-21T06:20:03;10.27;;;4.88;;
20828;SDS011;10575;50.124;8.582;2023-11-21T06:22:34;11.65;;;5.20;;
20828;SDS011;10575;50.124;8.582;2023-11-21T06:25:03;9.68;;;5.35;;
20828;SDS011;10575;50.124;8.582;2023-11-21T06:27:31;8.40;;;4.45;;
20828;SDS011;10575;50.124;8.582;2023-11-21T06:29:57;9.55;;;5.05;;
20828;SDS011;10575;50.124;8.582;2023-11-21T06:32:24;7.93;;;4.57;;
20828;SDS011;10575;50.124;8.582;2023-11-21T06:34:51;6.38;;;3.72;;
20828;SDS011;10575;50.124;8.582;2023-11-21T06:37:19;6.85;;;3.83;;
20828;SDS011;10575;50.124;8.582;2023-11-21T06:39:47;5.82;;;3.47;;
20828;SDS011;10575;50.124;8.582;2023-11-21T06:42:13;7.93;;;3.90;;
20828;SDS011;10575;50.124;8.582;2023-11-21T06:44:40;9.30;;;3.60;;
20828;SDS011;10575;50.124;8.582;2023-11-21T06:47:06;4.25;;;2.92;;
20828;SDS011;10575;50.124;8.582;2023-11-21T06:49:32;6.18;;;3.15;;
20828;SDS011;10575;50.124;8.582;2023-11-21T06:51:57;6.68;;;3.25;;
20828;SDS011;10575;50.124;8.582;2023-11-21T06:54:23;8.90;;;2.97;;
20828;SDS011;10575;50.124;8.582;2023-11-21T06:56:49;4.20;;;2.92;;
20828;SDS011;10575;50.124;8.582;2023-11-21T06:59:15;8.15;;;3.35;;
20828;SDS011;10575;50.124;8.582;2023-11-21T07:01:41;5.53;;;3.15;;
20828;SDS011;10575;50.124;8.582;2023-11-21T07:04:06;6.05;;;3.88;;
20828;SDS011;10575;50.124;8.582;2023-11-21T07:06:33;4.82;;;3.30;;
20828;SDS011;10575;50.124;8.582;2023-11-21T07:08:59;6.80;;;3.47;;
20828;SDS011;10575;50.124;8.582;2023-11-21T07:11:26;5.65;;;3.95;;
20828;SDS011;10575;50.124;8.582;2023-11-21T07:13:52;6.65;;;3.90;;
20828;SDS011;10575;50.124;8.582;2023-11-21T07:16:18;6.88;;;3.50;;
20828;SDS011;10575;50.124;8.582;2023-11-21T07:18:43;7.13;;;3.72;;
20828;SDS011;10575;50.124;8.582;2023-11-21T07:21:09;5.60;;;3.88;;
20828;SDS011;10575;50.124;8.582;2023-11-21T07:23:37;7.28;;;4.43;;
20828;SDS011;10575;50.124;8.582;2023-11-21T07:26:03;4.80;;;3.47;;
20828;SDS011;10575;50.124;8.582;2023-11-21T07:28:33;6.22;;;3.42;;
20828;SDS011;10575;50.124;8.582;2023-11-21T07:30:59;5.03;;;3.40;;
20828;SDS011;10575;50.124;8.582;2023-11-21T07:33:25;6.57;;;3.80;;
20828;SDS011;10575;50.124;8.582;2023-11-21T07:35:50;5.70;;;3.40;;
20828;SDS011;10575;50.124;8.582;2023-11-21T07:38:16;4.78;;;2.85;;
20828;SDS011;10575;50.124;8.582;2023-11-21T07:40:42;5.55;;;3.30;;
20828;SDS011;10575;50.124;8.582;2023-11-21T07:43:08;6.25;;;3.42;;
20828;SDS011;10575;50.124;8.582;2023-11-21T07:45:34;6.55;;;3.90;;
20828;SDS011;10575;50.124;8.582;2023-11-21T07:47:59;7.60;;;3.92;;
20828;SDS011;10575;50.124;8.582;2023-11-21T07:50:28;7.68;;;4.53;;
20828;SDS011;10575;50.124;8.582;2023-11-21T07:52:54;11.40;;;4.40;;
20828;SDS011;10575;50.124;8.582;2023-11-21T07:55:22;9.40;;;4.30;;
20828;SDS011;10575;50.124;8.582;2023-11-21T07:57:49;7.05;;;4.53;;
20828;SDS011;10575;50.124;8.582;2023-11-21T08:00:15;10.70;;;4.43;;
20828;SDS011;10575;50.124;8.582;2023-11-21T08:02:41;9.13;;;4.70;;
20828;SDS011;10575;50.124;8.582;2023-11-21T08:05:11;11.30;;;4.88;;
20828;SDS011;10575;50.124;8.582;2023-11-21T08:07:37;9.05;;;4.57;;
20828;SDS011;10575;50.124;8.582;2023-11-21T08:10:03;9.68;;;4.57;;
20828;SDS011;10575;50.124;8.582;2023-11-21T08:12:30;12.95;;;5.20;;
20828;SDS011;10575;50.124;8.582;2023-11-21T08:14:55;7.72;;;4.72;;
20828;SDS011;10575;50.124;8.582;2023-11-21T08:17:21;10.20;;;4.25;;
20828;SDS011;10575;50.124;8.582;2023-11-21T08:19:46;10.57;;;4.85;;
20828;SDS011;10575;50.124;8.582;2023-11-21T08:22:14;10.32;;;5.00;;
20828;SDS011;10575;50.124;8.582;2023-11-21T08:24:42;11.50;;;5.10;;
20828;SDS011;10575;50.124;8.582;2023-11-21T08:27:08;8.13;;;5.00;;
20828;SDS011;10575;50.124;8.582;2023-11-21T08:29:34;10.23;;;5.13;;
20828;SDS011;10575;50.124;8.582;2023-11-21T08:32:01;10.48;;;5.90;;
20828;SDS011;10575;50.124;8.582;2023-11-21T08:34:27;14.32;;;6.65;;
20828;SDS011;10575;50.124;8.582;2023-11-21T08:36:53;17.08;;;6.07;;
20828;SDS011;10575;50.124;8.582;2023-11-21T08:39:20;14.57;;;6.93;;
20828;SDS011;10575;50.124;8.582;2023-11-21T08:41:49;14.35;;;6.75;;
20828;SDS011;10575;50.124;8.582;2023-11-21T08:44:15;11.48;;;5.82;;
20828;SDS011;10575;50.124;8.582;2023-11-21T08:46:43;13.40;;;7.40;;
20828;SDS011;10575;50.124;8.582;2023-11-21T08:49:12;12.68;;;6.80;;
20828;SDS011;10575;50.124;8.582;2023-11-21T08:51:37;12.90;;;6.50;;
20828;SDS011;10575;50.124;8.582;2023-11-21T08:54:04;11.18;;;5.80;;
20828;SDS011;10575;50.124;8.582;2023-11-21T08:56:33;14.98;;;7.18;;
20828;SDS011;10575;50.124;8.582;2023-11-21T08:58:59;11.55;;;6.28;;
20828;SDS011;10575;50.124;8.582;2023-11-21T09:01:28;11.38;;;6.15;;
20828;SDS011;10575;50.124;8.582;2023-11-21T09:03:56;11.35;;;5.55;;
20828;SDS011;10575;50.124;8.582;2023-11-21T09:06:22;10.95;;;5.38;;
20828;SDS011;10575;50.124;8.582;2023-11-21T09:08:48;13.55;;;5.82;;
20828;SDS011;10575;50.124;8.582;2023-11-21T09:11:13;9.70;;;5.55;;
20828;SDS011;10575;50.124;8.582;2023-11-21T09:13:39;10.77;;;5.40;;
20828;SDS011;10575;50.124;8.582;2023-11-21T09:16:04;10.57;;;5.20;;
20828;SDS011;10575;50.124;8.582;2023-11-21T09:18:30;8.13;;;4.93;;
20828;SDS011;10575;50.124;8.582;2023-11-21T09:20:57;15.35;;;6.15;;
20828;SDS011;10575;50.124;8.582;2023-11-21T09:23:23;11.27;;;5.25;;
20828;SDS011;10575;50.124;8.582;2023-11-21T09:25:49;14.23;;;6.15;;
20828;SDS011;10575;50.124;8.582;2023-11-21T09:28:16;11.65;;;5.82;;
20828;SDS011;10575;50.124;8.582;2023-11-21T09:30:42;8.88;;;4.68;;
20828;SDS011;10575;50.124;8.582;2023-11-21T09:33:09;8.55;;;4.72;;
20828;SDS011;10575;50.124;8.582;2023-11-21T09:35:36;11.98;;;5.60;;
20828;SDS011;10575;50.124;8.582;2023-11-21T09:38:03;10.50;;;5.15;;
20828;SDS011;10575;50.124;8.582;2023-11-21T09:40:30;8.80;;;4.53;;
20828;SDS011;10575;50.124;8.582;2023-11-21T09:42:57;9.05;;;5.35;;
20828;SDS011;10575;50.124;8.582;2023-11-21T09:45:32;11.10;;;5.10;;
20828;SDS011;10575;50.124;8.582;2023-11-21T09:48:00;11.77;;;5.57;;
20828;SDS011;10575;50.124;8.582;2023-11-21T09:50:26;11.15;;;5.57;;
20828;SDS011;10575;50.124;8.582;2023-11-21T09:53:04;11.82;;;6.07;;
20828;SDS011;10575;50.124;8.582;2023-11-21T09:55:50;14.82;;;6.28;;
20828;SDS011;10575;50.124;8.582;2023-11-21T09:58:20;12.63;;;5.90;;
20828;SDS011;10575;50.124;8.582;2023-11-21T10:00:48;14.70;;;7.28;;
20828;SDS011;10575;50.124;8.582;2023-11-21T10:03:17;10.73;;;5.03;;
20828;SDS011;10575;50.124;8.582;2023-11-21T10:05:43;8.98;;;5.05;;
20828;SDS011;10575;50.124;8.582;2023-11-21T10:08:11;7.28;;;4.18;;
20828;SDS011;10575;50.124;8.582;2023-11-21T10:10:37;11.27;;;4.68;;
20828;SDS011;10575;50.124;8.582;2023-11-21T10:13:10;12.13;;;5.15;;
20828;SDS011;10575;50.124;8.582;2023-11-21T10:15:37;12.05;;;4.60;;
20828;SDS011;10575;50.124;8.582;2023-11-21T10:18:03;10.10;;;5.07;;
20828;SDS011;10575;50.124;8.582;2023-11-21T10:20:31;10.85;;;4.65;;
20828;SDS011;10575;50.124;8.582;2023-11-21T10:22:58;9.60;;;4.35;;
20828;SDS011;10575;50.124;8.582;2023-11-21T10:25:27;10.80;;;4.97;;
20828;SDS011;10575;50.124;8.582;2023-11-21T10:28:03;10.75;;;5.32;;
20828;SDS011;10575;50.124;8.582;2023-11-21T10:30:36;12.80;;;5.18;;
20828;SDS011;10575;50.124;8.582;2023-11-21T10:33:02;11.13;;;4.78;;
20828;SDS011;10575;50.124;8.582;2023-11-21T10:35:39;8.25;;;4.32;;
20828;SDS011;10575;50.124;8.582;2023-11-21T10:38:07;10.25;;;5.05;;
20828;SDS011;10575;50.124;8.582;2023-11-21T10:40:38;9.88;;;4.15;;
20828;SDS011;10575;50.124;8.582;2023-11-21T10:43:08;8.75;;;4.25;;
20828;SDS011;10575;50.124;8.582;2023-11-21T10:45:34;11.65;;;4.93;;
20828;SDS011;10575;50.124;8.582;2023-11-21T10:48:04;7.35;;;4.80;;
20828;SDS011;10575;50.124;8.582;2023-11-21T10:50:36;10.23;;;4.88;;
20828;SDS011;10575;50.124;8.582;2023-11-21T10:53:02;8.98;;;4.80;;
20828;SDS011;10575;50.124;8.582;2023-11-21T10:55:29;10.45;;;6.82;;
20828;SDS011;10575;50.124;8.582;2023-11-21T10:57:57;13.07;;;5.90;;
20828;SDS011;10575;50.124;8.582;2023-11-21T11:00:24;12.45;;;4.90;;
20828;SDS011;10575;50.124;8.582;2023-11-21T11:02:52;12.13;;;5.43;;
20828;SDS011;10575;50.124;8.582;2023-11-21T11:05:22;13.93;;;4.90;;
20828;SDS011;10575;50.124;8.582;2023-11-21T11:07:53;8.63;;;5.18;;
20828;SDS011;10575;50.124;8.582;2023-11-21T11:10:30;10.50;;;4.95;;
20828;SDS011;10575;50.124;8.582;2023-11-21T11:12:57;9.07;;;5.22;;
20828;SDS011;10575;50.124;8.582;2023-11-21T11:15:23;9.43;;;4.88;;
20828;SDS011;10575;50.124;8.582;2023-11-21T11:17:50;10.82;;;5.65;;
20828;SDS011;10575;50.124;8.582;2023-11-21T11:20:16;9.00;;;5.10;;
20828;SDS011;10575;50.124;8.582;2023-11-21T11:28:15;8.70;;;5.13;;
20828;SDS011;10575;50.124;8.582;2023-11-21T11:30:58;10.18;;;5.07;;
20828;SDS011;10575;50.124;8.582;2023-11-21T11:33:47;8.80;;;5.18;;
20828;SDS011;10575;50.124;8.582;2023-11-21T11:39:31;9.57;;;5.25;;
20828;SDS011;10575;50.124;8.582;2023-11-21T11:42:07;9.43;;;4.80;;
20828;SDS011;10575;50.124;8.582;2023-11-21T11:47:15;9.57;;;5.55;;
20828;SDS011;10575;50.124;8.582;2023-11-21T11:49:57;10.75;;;5.32;;
20828;SDS011;10575;50.124;8.582;2023-11-21T11:54:58;11.40;;;5.82;;
20828;SDS011;10575;50.124;8.582;2023-11-21T11:57:25;12.13;;;5.63;;
20828;SDS011;10575;50.124;8.582;2023-11-21T12:02:57;13.48;;;6.22;;
20828;SDS011;10575;50.124;8.582;2023-11-21T12:05:24;11.63;;;6.07;;
20828;SDS011;10575;50.124;8.582;2023-11-21T12:07:54;7.35;;;4.05;;
20828;SDS011;10575;50.124;8.582;2023-11-21T12:10:23;8.23;;;3.47;;
20828;SDS011;10575;50.124;8.582;2023-11-21T12:12:50;8.38;;;3.28;;
20828;SDS011;10575;50.124;8.582;2023-11-21T12:15:19;10.13;;;3.40;;
20828;SDS011;10575;50.124;8.582;2023-11-21T12:17:46;5.70;;;3.30;;
20828;SDS011;10575;50.124;8.582;2023-11-21T12:20:14;6.55;;;3.47;;
20828;SDS011;10575;50.124;8.582;2023-11-21T12:22:44;4.75;;;3.10;;
20828;SDS011;10575;50.124;8.582;2023-11-21T12:25:15;6.10;;;3.85;;
20828;SDS011;10575;50.124;8.582;2023-11-21T12:27:42;7.72;;;3.30;;
20828;SDS011;10575;50.124;8.582;2023-11-21T12:30:08;7.57;;;3.47;;
20828;SDS011;10575;50.124;8.582;2023-11-21T12:32:38;6.30;;;3.33;;
20828;SDS011;10575;50.124;8.582;2023-11-21T12:35:05;7.95;;;3.65;;
20828;SDS011;10575;50.124;8.582;2023-11-21T12:37:31;6.30;;;2.90;;
20828;SDS011;10575;50.124;8.582;2023-11-21T12:39:57;8.25;;;4.47;;
20828;SDS011;10575;50.124;8.582;2023-11-21T12:42:23;7.25;;;3.28;;
20828;SDS011;10575;50.124;8.582;2023-11-21T12:45:05;10.95;;;4.00;;
20828;SDS011;10575;50.124;8.582;2023-11-21T12:47:40;7.22;;;3.33;;
20828;SDS011;10575;50.124;8.582;2023-11-21T12:50:06;5.30;;;3.53;;
20828;SDS011;10575;50.124;8.582;2023-11-21T12:52:39;12.77;;;3.58;;
20828;SDS011;10575;50.124;8.582;2023-11-21T12:55:18;9.90;;;4.10;;
20828;SDS011;10575;50.124;8.582;2023-11-21T12:57:50;10.35;;;4.30;;
20828;SDS011;10575;50.124;8.582;2023-11-21T13:00:27;16.83;;;7.03;;
20828;SDS011;10575;50.124;8.582;2023-11-21T13:02:54;8.63;;;3.63;;
20828;SDS011;10575;50.124;8.582;2023-11-21T13:05:27;6.97;;;3.33;;
20828;SDS011;10575;50.124;8.582;2023-11-21T13:07:55;8.30;;;3.50;;
20828;SDS011;10575;50.124;8.582;2023-11-21T13:10:25;7.78;;;3.80;;
20828;SDS011;10575;50.124;8.582;2023-11-21T13:12:55;9.93;;;3.40;;
20828;SDS011;10575;50.124;8.582;2023-11-21T13:15:25;8.07;;;3.75;;
20828;SDS011;10575;50.124;8.582;2023-11-21T13:17:56;7.30;;;3.85;;
20828;SDS011;10575;50.124;8.582;2023-11-21T13:20:22;5.90;;;3.45;;
20828;SDS011;10575;50.124;8.582;2023-11-21T13:22:50;7.78;;;3.63;;
20828;SDS011;10575;50.124;8.582;2023-11-21T13:25:19;13.48;;;3.78;;
20828;SDS011;10575;50.124;8.582;2023-11-21T13:27:48;10.73;;;4.45;;
20828;SDS011;10575;50.124;8.582;2023-11-21T13:30:14;7.82;;;3.65;;
20828;SDS011;10575;50.124;8.582;2023-11-21T13:32:44;10.05;;;3.97;;
20828;SDS011;10575;50.124;8.582;2023-11-21T13:35:16;5.95;;;3.53;;
20828;SDS011;10575;50.124;8.582;2023-11-21T13:37:55;6.15;;;3.90;;
20828;SDS011;10575;50.124;8.582;2023-11-21T13:40:24;7.05;;;3.83;;
20828;SDS011;10575;50.124;8.582;2023-11-21T13:42:55;12.23;;;3.80;;
20828;SDS011;10575;50.124;8.582;2023-11-21T13:45:24;8.95;;;4.25;;
20828;SDS011;10575;50.124;8.582;2023-11-21T13:47:51;8.23;;;3.63;;
20828;SDS011;10575;50.124;8.582;2023-11-21T13:50:19;6.93;;;4.18;;
20828;SDS011;10575;50.124;8.582;2023-11-21T13:52:51;6.68;;;3.72;;
20828;SDS011;10575;50.124;8.582;2023-11-21T13:55:18;8.95;;;3.95;;
20828;SDS011;10575;50.124;8.582;2023-11-21T13:57:44;6.78;;;3.38;;
20828;SDS011;10575;50.124;8.582;2023-11-21T14:00:14;8.73;;;3.47;;
20828;SDS011;10575;50.124;8.582;2023-11-21T14:02:59;7.85;;;3.88;;
20828;SDS011;10575;50.124;8.582;2023-11-21T14:05:27;8.65;;;4.13;;
20828;SDS011;10575;50.124;8.582;2023-11-21T14:07:56;6.05;;;3.33;;
20828;SDS011;10575;50.124;8.582;2023-11-21T14:10:28;16.20;;;4.05;;
20828;SDS011;10575;50.124;8.582;2023-11-21T14:13:08;14.35;;;6.05;;
20828;SDS011;10575;50.124;8.582;2023-11-21T14:15:38;11.07;;;4.97;;
20828;SDS011;10575;50.124;8.582;2023-11-21T14:18:06;7.45;;;3.67;;
20828;SDS011;10575;50.124;8.582;2023-11-21T14:20:35;7.50;;;4.65;;
20828;SDS011;10575;50.124;8.582;2023-11-21T14:23:04;8.30;;;4.20;;
20828;SDS011;10575;50.124;8.582;2023-11-21T14:25:32;6.40;;;4.20;;
20828;SDS011;10575;50.124;8.582;2023-11-21T14:27:58;13.52;;;4.43;;
20828;SDS011;10575;50.124;8.582;2023-11-21T14:30:24;9.40;;;4.10;;
20828;SDS011;10575;50.124;8.582;2023-11-21T14:32:51;12.45;;;4.80;;
20828;SDS011;10575;50.124;8.582;2023-11-21T14:35:16;9.00;;;4.30;;
20828;SDS011;10575;50.124;8.582;2023-11-21T14:37:42;9.23;;;4.65;;
20828;SDS011;10575;50.124;8.582;2023-11-21T14:40:08;9.88;;;4.85;;
20828;SDS011;10575;50.124;8.582;2023-11-21T14:42:34;13.65;;;4.22;;
20828;SDS011;10575;50.124;8.582;2023-11-21T14:45:02;9.07;;;4.55;;
20828;SDS011;10575;50.124;8.582;2023-11-21T14:47:33;12.60;;;6.80;;
20828;SDS011;10575;50.124;8.582;2023-11-21T14:49:59;7.85;;;4.28;;
20828;SDS011;10575;50.124;8.582;2023-11-21T14:52:44;12.20;;;5.20;;
20828;SDS011;10575;50.124;8.582;2023-11-21T14:55:20;12.13;;;4.47;;
20828;SDS011;10575;50.124;8.582;2023-11-21T14:57:56;10.73;;;5.78;;
20828;SDS011;10575;50.124;8.582;2023-11-21T15:00:26;15.90;;;9.02;;